Time;durP1;ratioP1;P1;durP2;ratioP2;P2;SDS_P1;SDS_P2;PMS_P1;PMS_P2;Temp;Humidity;BMP_temperature;BMP_pressure;BME280_temperature;BME280_humidity;BME280_pressure;Samples;Min_cycle;Max_cycle;Signal;HPM_P1;HPM_P2
2022/11/08 00:01:33;;;;;;;30.62;21.70;;;;;;;3.85;85.59;100280.41;1745735;80;21045;-77
2022/11/08 00:04:02;;;;;;;29.90;21.23;;;;;;;3.88;85.37;100249.94;1746469;80;21537;-77
2022/11/08 00:14:45;;;;;;;32.65;23.07;;;;;;;3.83;85.68;100246.34;1744892;80;21062;-76
2022/11/08 00:17:15;;;;;;;31.55;22.55;;;;;;;3.74;85.97;100246.53;1730463;81;21097;-77
2022/11/08 00:19:43;;;;;;;31.62;22.00;;;;;;;3.69;86.08;100259.64;1747427;80;21010;-77
2022/11/08 00:22:11;;;;;;;28.45;20.75;;;;;;;3.68;86.17;100253.55;1740144;80;21057;-76
2022/11/08 00:24:37;;;;;;;32.65;21.95;;;;;;;3.72;85.97;100256.31;1737240;80;21076;-74
2022/11/08 00:27:13;;;;;;;30.30;21.82;;;;;;;3.66;86.11;100246.25;1747438;80;21073;-77
2022/11/08 00:29:39;;;;;;;34.98;21.37;;;;;;;3.59;86.22;100239.76;1743350;80;20994;-77
2022/11/08 00:32:10;;;;;;;27.37;20.05;;;;;;;3.55;86.38;100247.50;1749088;80;21136;-77
2022/11/08 00:34:37;;;;;;;28.70;20.37;;;;;;;3.62;86.45;100234.78;1747084;80;21565;-76
2022/11/08 00:37:04;;;;;;;31.02;21.25;;;;;;;3.59;86.49;100233.67;1744085;80;21014;-74
2022/11/08 00:39:30;;;;;;;26.73;18.77;;;;;;;3.53;86.62;100242.84;1745890;80;21034;-77
2022/11/08 00:41:57;;;;;;;31.70;21.20;;;;;;;3.48;86.87;100244.98;1738509;80;21041;-77
2022/11/08 00:44:23;;;;;;;28.83;20.95;;;;;;;3.53;86.79;100230.56;1754900;80;21497;-75
2022/11/08 00:46:50;;;;;;;28.23;21.02;;;;;;;3.55;86.49;100223.86;1751655;80;21065;-78
2022/11/08 00:49:18;;;;;;;33.40;22.93;;;;;;;3.47;86.85;100225.73;1746129;80;21089;-76
2022/11/08 00:51:45;;;;;;;33.18;22.17;;;;;;;3.43;86.95;100230.01;1749169;81;21061;-74
2022/11/08 00:54:13;;;;;;;29.20;20.60;;;;;;;3.45;86.89;100213.66;1753435;79;21088;-75
2022/11/08 00:56:40;;;;;;;30.92;20.72;;;;;;;3.54;86.69;100211.69;1745753;80;21296;-77
2022/11/08 00:59:12;;;;;;;31.48;21.27;;;;;;;3.52;86.68;100208.34;1751918;80;21210;-75
2022/11/08 01:01:39;;;;;;;33.40;21.48;;;;;;;3.49;86.72;100198.04;1737692;80;21533;-73
2022/11/08 01:04:06;;;;;;;30.65;20.08;;;;;;;3.46;86.79;100195.66;1691744;83;21088;-76
2022/11/08 01:06:32;;;;;;;27.02;19.85;;;;;;;3.50;86.52;100191.84;1701027;84;21067;-75
2022/11/08 01:08:59;;;;;;;29.30;20.48;;;;;;;3.56;86.55;100195.34;1685614;82;21775;-76
2022/11/08 01:11:25;;;;;;;27.07;20.27;;;;;;;3.51;86.71;100206.64;1695865;82;21054;-76
2022/11/08 01:13:58;;;;;;;31.73;20.75;;;;;;;3.46;86.90;100202.22;1691038;82;21078;-75
2022/11/08 01:16:27;;;;;;;26.93;19.20;;;;;;;3.55;86.72;100201.53;1698386;84;21030;-74
2022/11/08 01:18:55;;;;;;;25.37;19.12;;;;;;;3.55;86.72;100201.53;1680521;82;21054;-75
2022/11/08 01:21:22;;;;;;;27.48;18.82;;;;;;;3.56;86.64;100208.47;1692857;83;21157;-74
2022/11/08 01:23:50;;;;;;;27.70;19.45;;;;;;;3.51;86.75;100226.34;1682282;82;21018;-74
2022/11/08 01:26:20;;;;;;;24.30;18.17;;;;;;;3.53;86.61;100231.02;1698014;84;21061;-77
2022/11/08 01:28:47;;;;;;;26.20;18.87;;;;;;;3.63;86.41;100218.91;1682156;84;21020;-75
2022/11/08 01:31:19;;;;;;;34.13;20.50;;;;;;;3.65;86.36;100215.69;1697428;83;21059;-75
2022/11/08 01:33:47;;;;;;;30.53;20.73;;;;;;;3.61;86.25;100212.93;1681903;83;21907;-74
2022/11/08 01:36:19;;;;;;;26.62;18.80;;;;;;;3.59;86.42;100206.92;1728221;82;21022;-75
2022/11/08 01:38:47;;;;;;;28.55;20.37;;;;;;;3.68;86.35;100218.08;1748910;80;21050;-74
2022/11/08 01:41:15;;;;;;;25.60;18.30;;;;;;;3.76;85.97;100207.48;1744508;80;21077;-75
2022/11/08 01:43:49;;;;;;;32.38;22.67;;;;;;;3.74;85.90;100202.34;1740902;80;21022;-74
2022/11/08 01:46:29;;;;;;;28.70;19.65;;;;;;;3.70;85.96;100193.84;1738564;80;21136;-75
2022/11/08 01:49:19;;;;;;;25.55;18.85;;;;;;;3.69;85.75;100200.06;1744185;80;21530;-75
2022/11/08 01:52:13;;;;;;;27.75;19.75;;;;;;;3.81;85.27;100189.60;1741776;80;21044;-76
2022/11/08 01:55:05;;;;;;;31.87;18.87;;;;;;;3.80;85.28;100188.73;1741127;80;21089;-78
2022/11/08 01:57:56;;;;;;;28.87;19.15;;;;;;;3.71;85.48;100195.53;1747869;80;21283;-76
2022/11/08 02:00:24;;;;;;;28.32;18.65;;;;;;;3.63;85.60;100194.41;1695636;83;21113;-75
2022/11/08 02:03:00;;;;;;;27.45;19.87;;;;;;;3.70;85.46;100196.95;1731121;80;21696;-75
2022/11/08 02:05:28;;;;;;;28.35;20.60;;;;;;;3.65;85.58;100203.87;1727511;82;21061;-75
2022/11/08 02:08:07;;;;;;;28.32;19.80;;;;;;;3.59;85.76;100209.55;1733833;80;20995;-76
2022/11/08 02:10:39;;;;;;;23.20;17.60;;;;;;;3.61;85.86;100191.05;1736990;80;21042;-76
2022/11/08 02:13:13;;;;;;;27.02;19.80;;;;;;;3.69;85.77;100201.38;1731215;80;21172;-76
2022/11/08 02:15:40;;;;;;;;;;;;;;;3.67;85.73;100194.08;1749624;80;21014;-76
2022/11/08 02:18:08;;;;;;;29.27;19.95;;;;;;;3.62;85.82;100198.83;1744254;80;20147;-75
2022/11/08 02:20:35;;;;;;;26.45;18.50;;;;;;;3.58;85.99;100211.83;1730852;80;21129;-76
2022/11/08 02:23:28;;;;;;;24.18;16.93;;;;;;;3.65;85.77;100213.52;1737445;80;21556;-75
2022/11/08 02:25:56;;;;;;;27.17;19.23;;;;;;;3.70;85.60;100216.17;1735335;80;21308;-75
2022/11/08 02:28:23;;;;;;;28.15;20.27;;;;;;;3.63;85.71;100207.08;1744834;80;21564;-77
2022/11/08 02:30:50;;;;;;;26.95;18.95;;;;;;;3.58;85.90;100203.94;1727220;80;21613;-76
2022/11/08 02:33:22;;;;;;;24.80;17.75;;;;;;;3.58;86.05;100213.63;1731451;80;21069;-76
2022/11/08 02:35:50;;;;;;;27.30;19.30;;;;;;;3.69;85.85;100207.94;1731361;80;21046;-74
2022/11/08 02:38:18;;;;;;;29.85;21.00;;;;;;;3.73;85.68;100202.83;1724657;80;21248;-74
2022/11/08 02:40:51;;;;;;;27.27;20.12;;;;;;;3.69;85.61;100206.63;1730762;80;21101;-74
2022/11/08 02:43:18;;;;;;;26.93;18.80;;;;;;;3.63;85.71;100200.52;1742845;81;21121;-75
2022/11/08 02:45:45;;;;;;;29.23;19.00;;;;;;;3.69;85.73;100193.49;1727637;80;21077;-76
2022/11/08 02:48:11;;;;;;;26.90;20.68;;;;;;;3.71;85.50;100192.91;1737722;80;21062;-76
2022/11/08 02:50:39;;;;;;;28.47;19.85;;;;;;;3.62;85.70;100189.63;1729859;80;20987;-72
2022/11/08 02:53:06;;;;;;;24.75;19.00;;;;;;;3.56;86.07;100180.06;1742115;81;20998;-74
2022/11/08 02:55:33;;;;;;;28.12;19.67;;;;;;;3.59;86.03;100196.41;1728347;80;21101;-75
2022/11/08 02:58:00;;;;;;;28.38;20.00;;;;;;;3.66;85.87;100192.87;1734601;80;21586;-75
2022/11/08 03:00:27;;;;;;;28.57;20.43;;;;;;;3.60;86.01;100194.16;1732530;80;21006;-75
2022/11/08 03:03:02;;;;;;;27.48;18.37;;;;;;;3.59;86.05;100189.02;1730298;80;21308;-75
2022/11/08 03:05:29;;;;;;;24.02;16.93;;;;;;;3.58;86.04;100187.34;1659101;85;21058;-74
2022/11/08 03:07:57;;;;;;;26.40;18.05;;;;;;;3.72;85.83;100192.42;1732736;80;21502;-74
2022/11/08 03:10:26;;;;;;;29.52;19.55;;;;;;;3.75;85.62;100189.58;1725993;80;21511;-74
2022/11/08 03:13:02;;;;;;;28.92;19.73;;;;;;;3.73;85.67;100200.20;1706322;82;21074;-77
2022/11/08 03:15:29;;;;;;;24.40;18.32;;;;;;;3.70;85.53;100199.58;1713820;80;21125;-76
2022/11/08 03:17:57;;;;;;;27.70;17.32;;;;;;;3.74;85.58;100201.02;1738159;80;21085;-77
2022/11/08 03:20:25;;;;;;;25.90;18.60;;;;;;;3.84;85.47;100199.87;1737880;80;21237;-76
2022/11/08 03:22:58;;;;;;;27.35;19.87;;;;;;;3.84;85.28;100211.70;1731765;80;21070;-77
2022/11/08 03:25:26;;;;;;;28.67;19.62;;;;;;;3.78;85.17;100204.27;1728943;80;21010;-76
2022/11/08 03:27:55;;;;;;;23.27;17.67;;;;;;;3.73;85.32;100209.39;1723129;80;21009;-76
2022/11/08 03:30:21;;;;;;;27.37;17.98;;;;;;;3.80;85.42;100207.63;1740729;80;21105;-77
2022/11/08 03:32:48;;;;;;;25.08;18.27;;;;;;;3.78;85.36;100205.58;1737057;80;21018;-76
2022/11/08 03:35:15;;;;;;;27.48;19.25;;;;;;;3.70;85.44;100205.66;1746502;80;21461;-77
2022/11/08 03:37:51;;;;;;;25.90;17.85;;;;;;;3.65;85.70;100206.50;1752503;80;21112;-77
2022/11/08 03:40:18;;;;;;;27.00;18.35;;;;;;;3.70;85.55;100204.34;1748813;80;22025;-76
2022/11/08 03:42:47;;;;;;;26.27;18.20;;;;;;;3.76;85.49;100206.17;1751194;80;21185;-75
2022/11/08 03:45:14;;;;;;;25.27;19.27;;;;;;;3.69;85.70;100201.83;1746597;81;21104;-77
2022/11/08 03:47:43;;;;;;;29.20;19.45;;;;;;;3.63;85.90;100195.72;1746459;81;21088;-76
2022/11/08 03:50:10;;;;;;;26.35;18.60;;;;;;;3.66;85.97;100211.27;1732930;80;21529;-77
2022/11/08 03:52:46;;;;;;;28.95;20.32;;;;;;;3.75;85.88;100200.09;1730546;80;21550;-77
2022/11/08 03:55:13;;;;;;;24.30;17.60;;;;;;;3.74;85.96;100199.71;1726685;81;21092;-78
2022/11/08 03:57:41;;;;;;;26.85;20.40;;;;;;;3.70;86.06;100200.41;1744716;80;21015;-75
2022/11/08 04:00:09;;;;;;;25.97;18.70;;;;;;;3.68;86.20;100205.42;1745289;80;21117;-77
2022/11/08 04:02:40;;;;;;;25.50;19.30;;;;;;;3.78;86.01;100201.64;1755023;81;21633;-77
2022/11/08 04:05:09;;;;;;;24.80;18.48;;;;;;;3.82;85.81;100192.58;1746660;80;21970;-76
2022/11/08 04:07:36;;;;;;;26.68;19.87;;;;;;;3.80;86.00;100195.80;1750321;80;21034;-78
2022/11/08 04:10:04;;;;;;;27.42;19.05;;;;;;;3.77;86.14;100198.19;1751766;80;21573;-81
2022/11/08 04:15:20;;;;;;;32.10;20.55;;;;;;;3.87;85.82;100194.39;1731330;80;21057;-78
2022/11/08 04:23:25;;;;;;;29.18;19.37;;;;;;;3.81;86.13;100202.74;1694765;84;21027;-79
2022/11/08 04:25:54;;;;;;;26.90;18.95;;;;;;;3.84;86.12;100203.81;1687457;84;21551;-77
2022/11/08 04:28:27;;;;;;;27.05;19.45;;;;;;;3.91;85.99;100201.92;1693249;84;21058;-76
2022/11/08 04:31:03;;;;;;;25.57;19.37;;;;;;;3.87;86.25;100199.17;1684486;82;21183;-76
2022/11/08 04:33:30;;;;;;;26.68;18.92;;;;;;;3.83;86.40;100199.52;1690653;84;21562;-75
2022/11/08 04:36:02;;;;;;;27.75;19.70;;;;;;;3.82;86.48;100190.78;1697268;84;21027;-78
2022/11/08 04:38:30;;;;;;;28.07;19.00;;;;;;;3.90;86.26;100195.02;1680162;83;21043;-77
2022/11/08 04:41:11;;;;;;;30.25;20.72;;;;;;;3.87;86.33;100192.59;1695665;83;21032;-76
2022/11/08 04:43:38;;;;;;;28.75;20.37;;;;;;;3.82;86.67;100194.72;1691723;84;21164;-78
2022/11/08 04:46:13;;;;;;;25.60;19.32;;;;;;;3.78;87.19;100204.27;1689783;84;21178;-76
2022/11/08 04:48:40;;;;;;;24.30;17.98;;;;;;;3.78;87.41;100193.75;1694525;84;21110;-76
2022/11/08 04:51:18;;;;;;;27.40;17.95;;;;;;;3.78;88.00;100193.75;1685722;82;21063;-77
2022/11/08 04:53:46;;;;;;;25.80;18.45;;;;;;;3.78;88.00;100193.75;1685880;82;21009;-77
2022/11/08 04:56:15;;;;;;;27.42;18.80;;;;;;;3.71;88.49;100196.84;1686318;83;21214;-79
2022/11/08 04:58:45;;;;;;;25.60;18.95;;;;;;;3.64;88.79;100197.41;1685319;82;21859;-78
2022/11/08 05:01:22;;;;;;;25.82;18.42;;;;;;;3.66;89.07;100199.45;1688735;84;21565;-80
2022/11/08 05:03:50;;;;;;;25.43;19.55;;;;;;;3.71;89.16;100199.47;1700510;82;21030;-77
2022/11/08 05:06:23;;;;;;;25.50;18.87;;;;;;;3.63;89.56;100193.95;1702457;82;20979;-76
2022/11/08 05:08:53;;;;;;;25.08;17.92;;;;;;;3.57;90.02;100200.94;1687716;84;22234;-78
2022/11/08 05:11:21;;;;;;;25.62;18.60;;;;;;;3.57;90.16;100209.30;1695068;82;21070;-79
2022/11/08 05:13:48;;;;;;;26.55;19.50;;;;;;;3.63;90.10;100209.71;1727780;80;21656;-78
2022/11/08 05:16:19;;;;;;;28.67;19.37;;;;;;;3.54;90.45;100205.95;1749723;82;20977;-78
2022/11/08 05:18:47;;;;;;;28.32;19.30;;;;;;;3.47;90.82;100211.28;1739496;80;21069;-77
2022/11/08 05:24:01;;;;;;;25.77;18.37;;;;;;;3.63;90.49;100218.91;1735074;80;21049;-76
2022/11/08 05:26:29;;;;;;;24.23;18.32;;;;;;;3.62;90.71;100222.95;1740254;80;21097;-75
2022/11/08 05:28:55;;;;;;;23.18;17.27;;;;;;;3.59;90.78;100228.42;1734541;80;21522;-77
2022/11/08 05:31:21;;;;;;;27.25;19.25;;;;;;;3.61;90.91;100231.32;1740522;82;21057;-75
2022/11/08 05:33:48;;;;;;;25.10;19.20;;;;;;;3.65;90.87;100217.00;1750909;80;21502;-74
2022/11/08 05:36:14;;;;;;;26.10;18.02;;;;;;;3.65;90.87;100217.00;1755437;80;21517;-74
2022/11/08 05:38:41;;;;;;;25.30;17.82;;;;;;;3.61;90.90;100219.50;1737185;80;21010;-75
2022/11/08 05:41:14;;;;;;;27.62;18.75;;;;;;;3.66;90.76;100218.67;1756590;81;21248;-75
2022/11/08 05:43:42;;;;;;;25.55;18.80;;;;;;;3.77;90.62;100216.58;1742992;80;21494;-76
2022/11/08 05:46:08;;;;;;;25.80;18.30;;;;;;;3.81;90.43;100218.52;1746688;80;21598;-73
2022/11/08 05:48:35;;;;;;;26.05;20.30;;;;;;;3.80;90.48;100216.82;1743864;80;21066;-73
2022/11/08 05:51:01;;;;;;;23.83;17.25;;;;;;;3.78;90.53;100216.09;1750021;81;21026;-74
2022/11/08 05:53:27;;;;;;;23.80;17.50;;;;;;;3.82;90.21;100222.80;1748979;80;21081;-73
2022/11/08 05:55:58;;;;;;;26.93;17.95;;;;;;;3.93;89.77;100230.73;1750693;80;22193;-75
2022/11/08 05:58:26;;;;;;;23.80;17.30;;;;;;;3.87;89.86;100228.08;1737612;80;21905;-74
2022/11/08 06:01:10;;;;;;;24.75;17.20;;;;;;;3.81;90.24;100227.71;1733144;80;21038;-74
2022/11/08 06:03:38;;;;;;;22.07;16.82;;;;;;;3.84;90.33;100228.78;1744183;80;21640;-75
2022/11/08 06:06:11;;;;;;;26.48;19.52;;;;;;;3.93;90.26;100243.39;1745910;80;21085;-77
2022/11/08 06:08:38;;;;;;;25.65;19.30;;;;;;;3.89;90.45;100240.63;1742232;80;21099;-77
2022/11/08 06:11:10;;;;;;;24.57;18.07;;;;;;;3.81;90.92;100238.22;1746050;80;21514;-76
2022/11/08 06:13:38;;;;;;;25.02;18.90;;;;;;;3.86;90.96;100230.81;1750883;81;21052;-77
2022/11/08 06:16:08;;;;;;;25.57;19.00;;;;;;;3.92;90.95;100224.65;1738825;80;21013;-78
2022/11/08 06:18:37;;;;;;;30.27;19.42;;;;;;;3.93;91.39;100212.34;1735120;80;21077;-78
2022/11/08 06:21:05;;;;;;;25.57;18.75;;;;;;;3.94;91.47;100225.86;1739498;80;21566;-76
2022/11/08 06:23:32;;;;;;;29.30;19.07;;;;;;;3.95;91.21;100230.14;1742953;80;21858;-77
2022/11/08 06:25:59;;;;;;;28.02;18.82;;;;;;;4.04;90.81;100227.33;1740210;80;21561;-78
2022/11/08 06:28:26;;;;;;;28.27;20.25;;;;;;;4.01;90.93;100217.85;1733431;80;21057;-79
2022/11/08 06:30:52;;;;;;;24.57;18.80;;;;;;;4.00;91.21;100218.83;1749463;80;21131;-77
2022/11/08 06:33:19;;;;;;;27.67;19.25;;;;;;;4.01;91.04;100212.59;1733482;80;21050;-79
2022/11/08 06:35:46;;;;;;;27.82;19.82;;;;;;;4.12;90.67;100223.64;1730705;81;21232;-80
2022/11/08 06:38:12;;;;;;;29.25;19.92;;;;;;;4.12;90.75;100223.64;1737963;80;21109;-79
2022/11/08 06:40:39;;;;;;;25.45;19.42;;;;;;;4.08;90.81;100219.08;1744163;80;20988;-82
2022/11/08 06:43:06;;;;;;;25.35;17.67;;;;;;;4.12;90.77;100229.73;1732298;80;21533;-81
2022/11/08 06:45:36;;;;;;;27.10;20.12;;;;;;;4.22;90.55;100234.30;1722950;82;21515;-81
2022/11/08 06:48:03;;;;;;;27.58;20.92;;;;;;;4.18;90.68;100239.44;1730437;82;21153;-83
2022/11/08 06:50:31;;;;;;;23.47;17.73;;;;;;;4.10;91.09;100240.84;1724783;80;21016;-80
2022/11/08 06:53:00;;;;;;;26.30;18.80;;;;;;;4.14;91.13;100230.45;1729775;80;21034;-80
2022/11/08 06:55:27;;;;;;;27.75;19.67;;;;;;;4.17;91.20;100226.74;1730683;82;22261;-81
2022/11/08 06:57:53;;;;;;;27.73;19.65;;;;;;;4.13;91.44;100232.73;1729413;80;21066;-80
2022/11/08 07:00:20;;;;;;;32.80;19.50;;;;;;;4.17;91.48;100224.59;1732113;80;21300;-80
2022/11/08 07:02:54;;;;;;;31.62;20.37;;;;;;;4.27;91.37;100229.55;1730225;80;21007;-79
2022/11/08 07:05:21;;;;;;;31.57;22.48;;;;;;;4.26;91.35;100223.91;1713674;82;20999;-80
2022/11/08 07:07:50;;;;;;;27.80;19.42;;;;;;;4.23;91.71;100215.79;1739779;80;21528;-80
2022/11/08 07:10:18;;;;;;;33.55;19.50;;;;;;;4.28;91.79;100233.35;1745335;80;21046;-81
2022/11/08 07:12:45;;;;;;;29.87;20.72;;;;;;;4.42;91.40;100230.98;1741528;80;21336;-81
2022/11/08 07:15:17;;;;;;;36.17;22.48;;;;;;;4.46;91.29;100235.09;1728447;80;21109;-80
2022/11/08 07:17:44;;;;;;;30.48;19.48;;;;;;;4.41;91.44;100239.02;1726942;80;21110;-80
2022/11/08 07:20:12;;;;;;;31.57;22.07;;;;;;;4.45;91.55;100237.83;1729306;80;21125;-78
2022/11/08 07:22:38;;;;;;;32.60;20.68;;;;;;;4.52;91.28;100241.69;1738147;80;21104;-80
2022/11/08 07:25:07;;;;;;;34.20;20.85;;;;;;;4.49;91.45;100240.09;1730666;80;21146;-81
2022/11/08 07:27:34;;;;;;;30.77;20.85;;;;;;;4.48;91.79;100237.13;1742826;81;21101;-78
2022/11/08 07:30:02;;;;;;;33.40;22.87;;;;;;;4.59;91.79;100239.41;1725792;82;21094;-77
2022/11/08 07:32:28;;;;;;;32.70;21.07;;;;;;;4.57;91.80;100232.11;1736674;80;21093;-76
2022/11/08 07:34:55;;;;;;;32.23;19.42;;;;;;;4.57;92.22;100232.11;1730383;81;21058;-77
2022/11/08 07:37:22;;;;;;;36.65;20.10;;;;;;;4.66;92.09;100230.09;1736967;80;21171;-75
2022/11/08 07:39:52;;;;;;;36.48;23.42;;;;;;;4.69;92.07;100232.47;1737695;81;20994;-78
2022/11/08 07:42:21;;;;;;;41.75;21.97;;;;;;;4.65;92.27;100237.13;1743347;81;21014;-78
2022/11/08 07:44:49;;;;;;;45.08;24.92;;;;;;;4.72;92.42;100233.56;1751591;80;21041;-78
2022/11/08 07:47:15;;;;;;;42.30;23.10;;;;;;;4.81;92.10;100238.13;1739673;80;21034;-77
2022/11/08 07:49:42;;;;;;;40.60;23.87;;;;;;;4.77;92.21;100234.52;1749120;80;21796;-80
2022/11/08 07:52:09;;;;;;;39.95;22.27;;;;;;;4.73;92.51;100229.95;1739555;80;20994;-82
2022/11/08 07:54:36;;;;;;;40.92;24.67;;;;;;;4.82;92.44;100233.20;1747063;81;21026;-82
2022/11/08 07:57:03;;;;;;;39.73;26.02;;;;;;;4.89;92.17;100236.21;1754302;80;21053;-83
2022/11/08 07:59:30;;;;;;;41.48;24.85;;;;;;;4.86;92.35;100233.31;1758856;80;21026;-86
2022/11/08 08:01:56;;;;;;;40.70;23.75;;;;;;;4.91;92.38;100228.55;1748781;80;21066;-79
2022/11/08 08:04:22;;;;;;;32.20;23.25;;;;;;;5.03;92.26;100228.55;1751334;80;21097;-79
2022/11/08 08:06:49;;;;;;;42.50;23.55;;;;;;;5.03;92.38;100230.69;1731994;80;21042;-88
2022/11/08 08:09:25;;;;;;;38.67;23.92;;;;;;;5.01;92.40;100225.20;1740393;81;21015;-86
2022/11/08 08:11:51;;;;;;;41.53;23.77;;;;;;;5.10;92.21;100221.84;1749392;81;20990;-85
2022/11/08 08:14:44;;;;;;;;;;;;;;;;;;;;;
2022/11/08 08:17:08;;;;;;;37.53;23.60;;;;;;;5.16;92.33;100214.77;1724703;80;21065;-88
2022/11/08 08:19:36;;;;;;;42.35;26.77;;;;;;;5.17;92.36;100223.02;1765465;80;21068;-83
2022/11/08 08:22:03;;;;;;;37.48;24.63;;;;;;;5.24;92.07;100228.16;1713990;78;21502;-81
2022/11/08 08:24:30;;;;;;;45.17;26.02;;;;;;;5.30;91.76;100226.35;1719462;82;21069;-81
2022/11/08 08:26:57;;;;;;;46.85;26.55;;;;;;;5.24;92.04;100225.53;1719567;83;21626;-87
2022/11/08 08:29:26;;;;;;;45.05;23.95;;;;;;;5.19;92.36;100229.48;1726358;81;21042;-80
2022/11/08 08:31:53;;;;;;;40.25;24.77;;;;;;;5.21;92.50;100234.15;1711835;83;21004;-82
2022/11/08 08:34:21;;;;;;;41.33;23.85;;;;;;;5.28;92.41;100230.91;1699543;83;21075;-81
2022/11/08 08:36:48;;;;;;;42.90;25.00;;;;;;;5.25;92.72;100224.58;1705980;83;21061;-80
2022/11/08 08:39:14;;;;;;;41.42;25.12;;;;;;;5.25;93.04;100224.58;1709077;83;21033;-82
2022/11/08 08:41:41;;;;;;;42.10;25.55;;;;;;;5.34;93.02;100227.44;1707360;82;21093;-84
2022/11/08 08:44:07;;;;;;;46.35;26.02;;;;;;;5.45;92.79;100223.47;1712442;81;21018;-80
2022/11/08 08:46:34;;;;;;;50.55;26.60;;;;;;;5.44;93.05;100222.61;1718670;81;21142;-80
2022/11/08 08:49:00;;;;;;;47.75;25.40;;;;;;;5.40;93.51;100224.30;1717970;82;21803;-80
2022/11/08 08:51:27;;;;;;;38.45;24.07;;;;;;;5.42;93.62;100221.06;1716692;81;22404;-81
2022/11/08 08:53:53;;;;;;;45.78;27.05;;;;;;;5.50;93.42;100225.23;1717528;82;22232;-84
2022/11/08 08:56:20;;;;;;;46.33;27.98;;;;;;;5.49;93.40;100224.89;1719625;82;21018;-84
2022/11/08 08:58:48;;;;;;;48.85;25.92;;;;;;;5.43;93.56;100222.27;1722286;82;21074;-81
2022/11/08 09:01:15;;;;;;;46.70;23.77;;;;;;;5.51;93.66;100221.65;1717529;83;21130;-79
2022/11/08 09:03:43;;;;;;;47.20;26.33;;;;;;;5.62;93.53;100220.77;1720862;82;21018;-80
2022/11/08 09:06:10;;;;;;;47.93;25.95;;;;;;;5.64;93.67;100221.02;1720855;82;21039;-83
2022/11/08 09:08:36;;;;;;;44.13;25.10;;;;;;;5.66;93.67;100220.41;1722538;83;21122;-79
2022/11/08 09:11:04;;;;;;;48.98;26.05;;;;;;;5.78;93.45;100221.70;1707443;83;21058;-83
2022/11/08 09:13:31;;;;;;;44.00;26.33;;;;;;;5.87;93.21;100224.41;1704886;82;21051;-81
2022/11/08 09:16:00;;;;;;;45.92;26.23;;;;;;;5.88;93.37;100228.70;1705350;84;21322;-82
2022/11/08 09:18:31;;;;;;;43.30;24.65;;;;;;;5.89;93.40;100230.86;1708101;82;21054;-80
2022/11/08 09:21:02;;;;;;;44.20;24.90;;;;;;;5.95;93.08;100232.16;1710450;82;21109;-83
2022/11/08 09:23:29;;;;;;;45.20;25.88;;;;;;;6.07;92.66;100232.02;1684280;84;21034;-81
2022/11/08 09:26:01;;;;;;;47.25;27.80;;;;;;;6.09;92.61;100231.90;1689994;84;21026;-80
2022/11/08 09:28:32;;;;;;;47.00;26.80;;;;;;;6.06;92.86;100232.97;1691182;83;21647;-78
2022/11/08 09:31:05;;;;;;;44.10;24.65;;;;;;;6.14;92.96;100232.33;1688576;83;21074;-85
2022/11/08 09:33:32;;;;;;;45.98;26.15;;;;;;;6.34;92.81;100222.77;1691943;83;25673;-83
2022/11/08 09:38:52;;;;;;;47.23;26.30;;;;;;;6.43;92.56;100231.70;1677964;85;21165;-82
2022/11/08 09:42:00;;;;;;;45.67;26.65;;;;;;;6.59;91.96;100225.98;1706198;82;21119;-81
2022/11/08 09:45:07;;;;;;;49.98;29.48;;;;;;;6.68;91.69;100217.25;1701228;84;21040;-82
2022/11/08 09:47:38;;;;;;;42.10;24.90;;;;;;;6.66;91.67;100220.51;1694537;84;21059;-81
2022/11/08 09:50:30;;;;;;;45.30;25.43;;;;;;;6.64;91.34;100226.41;1704795;82;21631;-81
2022/11/08 09:53:20;;;;;;;45.35;26.30;;;;;;;6.77;91.36;100216.47;1701502;84;21096;-81
2022/11/08 09:55:55;;;;;;;46.63;28.05;;;;;;;6.81;90.79;100219.20;1726157;81;21103;-82
2022/11/08 09:58:46;;;;;;;41.13;24.80;;;;;;;6.74;90.81;100219.39;1698558;82;21072;-79
2022/11/08 10:01:12;;;;;;;41.15;24.43;;;;;;;6.72;90.90;100221.30;1675514;84;21127;-81
2022/11/08 10:03:43;;;;;;;49.30;29.20;;;;;;;6.81;90.88;100217.05;1704710;82;21107;-82
2022/11/08 10:06:32;;;;;;;47.13;27.70;;;;;;;6.82;91.04;100219.56;1672772;85;21054;-83
2022/11/08 10:09:25;;;;;;;42.08;25.08;;;;;;;6.83;91.25;100217.26;1731232;81;21137;-82
2022/11/08 10:12:03;;;;;;;45.90;27.40;;;;;;;7.00;91.21;100209.69;1680827;84;20979;-84
2022/11/08 10:15:14;;;;;;;41.70;26.33;;;;;;;7.26;91.01;100212.68;1729594;81;20928;-84
2022/11/08 10:18:17;;;;;;;41.53;24.82;;;;;;;7.50;90.76;100208.36;1675776;84;21547;-83
2022/11/08 10:21:11;;;;;;;40.17;26.02;;;;;;;7.73;89.48;100207.63;1737881;81;21042;-82
2022/11/08 10:23:45;;;;;;;38.17;26.15;;;;;;;7.99;89.04;100203.92;1739363;82;20943;-84
2022/11/08 10:26:22;;;;;;;41.40;29.23;;;;;;;8.19;88.48;100202.11;1729726;81;21086;-82
2022/11/08 10:28:57;;;;;;;45.95;29.85;;;;;;;8.35;88.06;100208.14;1712036;82;20988;-82
2022/11/08 10:31:25;;;;;;;47.48;27.87;;;;;;;8.51;87.32;100206.75;1714342;81;21072;-84
2022/11/08 10:33:56;;;;;;;44.75;25.57;;;;;;;8.74;86.93;100204.09;1726813;82;21060;-83
2022/11/08 10:36:49;;;;;;;41.98;27.45;;;;;;;9.10;85.28;100199.39;1726659;81;21146;-84
2022/11/08 10:39:26;;;;;;;42.62;28.30;;;;;;;9.35;84.46;100202.69;1728028;81;21015;-86
2022/11/08 10:42:37;;;;;;;41.98;29.48;;;;;;;9.58;83.79;100205.76;1736650;81;21067;-82
2022/11/08 10:45:05;;;;;;;37.58;25.85;;;;;;;9.68;83.60;100207.02;1649329;85;21093;-84
2022/11/08 10:49:20;;;;;;;42.38;28.87;;;;;;;9.89;81.79;100201.88;1788721;78;28096;-83
2022/11/08 10:51:53;;;;;;;44.35;29.70;;;;;;;9.75;81.76;100210.70;1714749;81;21023;-84
2022/11/08 10:54:47;;;;;;;43.83;29.98;;;;;;;9.51;81.77;100195.39;1701508;83;21181;-81
2022/11/08 10:57:44;;;;;;;41.35;28.30;;;;;;;9.50;81.82;100212.28;1700381;82;21032;-79
2022/11/08 11:00:22;;;;;;;42.60;28.62;;;;;;;9.36;81.89;100214.95;1710450;82;21062;-79
2022/11/08 11:02:52;;;;;;;41.30;27.40;;;;;;;9.31;82.19;100214.58;1706097;82;21175;-79
2022/11/08 11:05:30;;;;;;;41.95;28.05;;;;;;;9.21;82.61;100208.48;1710096;82;21078;-82
2022/11/08 11:08:11;;;;;;;37.45;26.10;;;;;;;9.16;83.23;100214.73;1706475;82;21361;-82
2022/11/08 11:10:42;;;;;;;38.73;27.30;;;;;;;9.14;83.25;100213.55;1713782;82;21009;-83
2022/11/08 11:13:20;;;;;;;37.10;26.10;;;;;;;9.11;83.73;100213.83;1710841;82;21106;-83
2022/11/08 11:15:50;;;;;;;38.15;24.95;;;;;;;9.19;83.68;100205.14;1715228;82;22706;-84
2022/11/08 11:18:36;;;;;;;38.25;26.20;;;;;;;9.40;83.83;100208.36;1701172;80;21062;-84
2022/11/08 11:21:18;;;;;;;44.13;27.30;;;;;;;9.57;83.70;100209.87;1715111;82;22039;-85
2022/11/08 11:23:53;;;;;;;37.63;27.05;;;;;;;9.70;83.23;100214.83;1700881;82;21082;-83
2022/11/08 11:26:30;;;;;;;36.20;26.15;;;;;;;9.72;82.92;100212.86;1702344;83;21526;-84
2022/11/08 11:29:21;;;;;;;37.03;26.30;;;;;;;9.73;82.55;100226.45;1707912;82;21065;-82
2022/11/08 11:31:50;;;;;;;37.38;25.35;;;;;;;9.78;81.85;100225.52;1701780;82;21136;-83
2022/11/08 11:34:25;;;;;;;40.28;29.18;;;;;;;9.72;82.15;100214.18;1704765;83;21084;-83
2022/11/08 11:37:13;;;;;;;36.23;26.33;;;;;;;9.81;81.86;100222.53;1718699;82;21002;-84
2022/11/08 11:39:59;;;;;;;33.78;25.35;;;;;;;10.29;82.21;100219.96;1701048;83;21075;-83
2022/11/08 11:42:49;;;;;;;37.88;27.20;;;;;;;10.86;79.87;100218.21;1709807;83;21050;-84
2022/11/08 11:45:42;;;;;;;37.85;27.00;;;;;;;11.04;78.77;100220.78;1706028;82;21602;-87
2022/11/08 11:48:19;;;;;;;36.88;26.45;;;;;;;10.96;77.95;100220.24;1684493;82;21626;-85
2022/11/08 11:50:48;;;;;;;38.78;25.60;;;;;;;10.81;78.09;100225.31;1663840;82;21061;-89
2022/11/08 11:56:47;;;;;;;33.35;23.62;;;;;;;10.45;78.57;100229.92;1702913;79;21077;-89
2022/11/08 11:59:29;;;;;;;34.98;23.87;;;;;;;10.38;78.65;100225.71;1703818;83;21070;-85
2022/11/08 12:02:40;;;;;;;34.18;24.32;;;;;;;10.25;78.92;100225.25;1675371;84;21348;-81
2022/11/08 12:05:29;;;;;;;41.48;27.30;;;;;;;10.05;79.45;100235.21;1727592;81;21065;-84
2022/11/08 12:08:18;;;;;;;40.78;25.82;;;;;;;9.82;79.95;100230.86;1727202;81;21088;-83